createdAt,value
2023-05-14T00:00:30.110Z,99273.02
2023-05-14T00:02:57.336Z,99275.07
2023-05-14T00:05:24.748Z,99269.65
2023-05-14T00:07:51.962Z,99270.34
2023-05-14T00:10:20.733Z,99268.10
2023-05-14T00:12:48.640Z,99268.55
2023-05-14T00:15:16.170Z,99265.05
2023-05-14T00:17:43.283Z,99265.83
2023-05-14T00:20:12.252Z,99263.77
2023-05-14T00:22:39.584Z,99267.06
2023-05-14T00:25:07.302Z,99264.58
2023-05-14T00:27:35.265Z,99264.28
2023-05-14T00:30:02.661Z,99264.91
2023-05-14T00:32:30.599Z,99269.34
2023-05-14T00:34:57.822Z,99267.15
2023-05-14T00:37:25.096Z,99266.17
2023-05-14T00:39:52.331Z,99263.86
2023-05-14T00:42:19.731Z,99263.33
2023-05-14T00:44:46.855Z,99261.98
2023-05-14T00:47:14.161Z,99262.64
2023-05-14T00:49:41.345Z,99261.42
2023-05-14T00:52:08.837Z,99263.79
2023-05-14T00:54:36.651Z,99268.60
2023-05-14T00:57:04.088Z,99266.28
2023-05-14T00:59:31.468Z,99265.21
2023-05-14T01:01:58.579Z,99268.24
2023-05-14T01:04:25.774Z,99264.61
2023-05-14T01:07:08.119Z,99269.39
2023-05-14T01:09:46.373Z,99267.50
2023-05-14T01:12:44.377Z,99271.98
2023-05-14T01:15:15.482Z,99271.78
2023-05-14T01:17:47.330Z,99270.18
2023-05-14T01:20:14.783Z,99274.89
2023-05-14T01:22:41.776Z,99272.98
2023-05-14T01:25:09.963Z,99276.05
2023-05-14T01:27:40.463Z,99277.98
2023-05-14T01:30:37.665Z,99273.63
2023-05-14T01:33:07.393Z,99267.13
2023-05-14T01:35:35.408Z,99270.08
2023-05-14T01:38:07.476Z,99271.11
2023-05-14T01:40:35.060Z,99274.80
2023-05-14T01:43:02.486Z,99278.40
2023-05-14T01:45:30.320Z,99279.65
2023-05-14T01:47:57.937Z,99282.68
2023-05-14T01:50:25.186Z,99283.67
2023-05-14T01:52:56.601Z,99284.00
2023-05-14T01:55:26.978Z,99282.88
2023-05-14T01:57:54.454Z,99285.31
2023-05-14T02:00:23.395Z,99286.33
2023-05-14T02:02:50.802Z,99287.80
2023-05-14T02:05:18.384Z,99287.41
2023-05-14T02:07:45.348Z,99285.34
2023-05-14T02:10:12.348Z,99285.69
2023-05-14T02:12:39.448Z,99286.51
2023-05-14T02:15:09.121Z,99283.01
2023-05-14T02:17:36.462Z,99285.17
2023-05-14T02:20:04.339Z,99289.98
2023-05-14T02:22:31.958Z,99285.15
2023-05-14T02:24:59.013Z,99287.88
2023-05-14T02:27:26.406Z,99289.52
2023-05-14T02:29:53.541Z,99289.02
2023-05-14T02:32:20.694Z,99282.37
2023-05-14T02:34:47.805Z,99280.83
2023-05-14T02:37:14.908Z,99281.39
2023-05-14T02:39:42.124Z,99284.36
2023-05-14T02:42:09.144Z,99277.15
2023-05-14T02:44:36.763Z,99278.67
2023-05-14T02:47:04.141Z,99282.68
2023-05-14T02:49:31.425Z,99278.89
2023-05-14T02:52:00.928Z,99279.30
2023-05-14T02:54:27.999Z,99276.29
2023-05-14T02:56:55.039Z,99275.91
2023-05-14T02:59:24.433Z,99281.23
2023-05-14T03:01:52.029Z,99277.67
2023-05-14T03:04:19.510Z,99281.60
2023-05-14T03:06:46.752Z,99286.55
2023-05-14T03:09:14.418Z,99283.84
2023-05-14T03:11:41.823Z,99284.61
2023-05-14T03:14:09.424Z,99283.84
2023-05-14T03:16:36.801Z,99280.46
2023-05-14T03:19:04.125Z,99285.91
2023-05-14T03:21:32.229Z,99284.09
2023-05-14T03:23:59.324Z,99279.90
2023-05-14T03:26:26.479Z,99280.07
2023-05-14T03:28:53.558Z,99275.80
2023-05-14T03:31:20.964Z,99277.09
2023-05-14T03:33:48.033Z,99274.87
2023-05-14T03:36:15.330Z,99276.27
2023-05-14T03:38:42.300Z,99276.22
2023-05-14T03:41:09.500Z,99277.37
2023-05-14T03:43:36.776Z,99281.48
2023-05-14T03:46:04.057Z,99284.84
2023-05-14T03:48:31.648Z,99281.48
2023-05-14T03:50:58.697Z,99283.41
2023-05-14T03:53:25.754Z,99283.63
2023-05-14T03:55:52.768Z,99288.99
2023-05-14T03:58:20.314Z,99290.71
2023-05-14T04:00:47.562Z,99289.61
2023-05-14T04:03:14.980Z,99290.65
2023-05-14T04:05:42.110Z,99289.46
2023-05-14T04:08:09.267Z,99286.67
2023-05-14T04:10:36.345Z,99285.67
2023-05-14T04:13:03.379Z,99287.10
2023-05-14T04:15:33.131Z,99288.40
2023-05-14T04:18:00.312Z,99285.97
2023-05-14T04:20:27.777Z,99285.61
2023-05-14T04:22:54.802Z,99284.89
2023-05-14T04:25:22.003Z,99284.86
2023-05-14T04:27:49.656Z,99287.14
2023-05-14T04:30:17.135Z,99286.61
2023-05-14T04:32:44.652Z,99286.61
2023-05-14T04:35:12.939Z,99278.88
2023-05-14T04:37:40.654Z,99281.12
2023-05-14T04:40:11.327Z,99289.39
2023-05-14T04:42:39.005Z,99289.21
2023-05-14T04:45:06.837Z,99287.98
2023-05-14T04:47:34.123Z,99280.64
2023-05-14T04:50:01.265Z,99277.01
2023-05-14T04:52:30.169Z,99271.34
2023-05-14T04:54:57.161Z,99269.36
2023-05-14T04:57:24.315Z,99266.03
2023-05-14T04:59:51.294Z,99265.83
2023-05-14T05:02:18.445Z,99265.45
2023-05-14T05:04:45.698Z,99265.55
2023-05-14T05:07:13.412Z,99258.82
2023-05-14T05:09:40.757Z,99258.61
2023-05-14T05:12:08.033Z,99256.64
2023-05-14T05:14:35.554Z,99255.66
2023-05-14T05:17:02.769Z,99260.04
2023-05-14T05:19:42.546Z,99259.93
2023-05-14T05:22:11.130Z,99258.14
2023-05-14T05:24:38.700Z,99255.89
2023-05-14T05:27:06.169Z,99251.64
2023-05-14T05:29:33.647Z,99253.83
2023-05-14T05:32:00.806Z,99252.73
2023-05-14T05:34:27.990Z,99251.25
2023-05-14T05:36:55.166Z,99248.30
2023-05-14T05:39:22.667Z,99247.59
2023-05-14T05:41:49.673Z,99248.35
2023-05-14T05:44:16.612Z,99245.33
2023-05-14T05:46:43.609Z,99245.77
2023-05-14T05:49:10.706Z,99246.19
2023-05-14T05:51:37.822Z,99245.05
2023-05-14T05:54:04.823Z,99243.02
2023-05-14T05:56:32.044Z,99246.25
2023-05-14T05:58:58.985Z,99248.05
2023-05-14T06:01:26.810Z,99244.80
2023-05-14T06:03:53.770Z,99245.69
2023-05-14T06:06:21.802Z,99246.77
2023-05-14T06:08:49.117Z,99241.84
2023-05-14T06:11:17.052Z,99240.39
2023-05-14T06:13:45.849Z,99238.63
2023-05-14T06:16:13.734Z,99237.04
2023-05-14T06:18:40.932Z,99235.59
2023-05-14T06:21:07.912Z,99231.41
2023-05-14T06:23:35.412Z,99231.31
2023-05-14T06:26:02.389Z,99234.66
2023-05-14T06:28:29.593Z,99228.65
2023-05-14T06:30:56.581Z,99225.02
2023-05-14T06:33:30.834Z,99222.47
2023-05-14T06:36:04.747Z,99225.05
2023-05-14T06:38:32.134Z,99221.60
2023-05-14T06:40:59.180Z,99213.38
2023-05-14T06:43:26.673Z,99214.54
2023-05-14T06:45:54.046Z,99206.77
2023-05-14T06:48:21.409Z,99204.02
2023-05-14T06:50:49.865Z,99205.96
2023-05-14T06:53:16.978Z,99204.17
2023-05-14T06:55:43.984Z,99203.79
2023-05-14T06:58:10.920Z,99203.34
2023-05-14T07:00:38.233Z,99201.73
2023-05-14T07:03:05.515Z,99194.15
2023-05-14T07:05:33.105Z,99192.34
2023-05-14T07:08:00.203Z,99192.10
2023-05-14T07:10:27.292Z,99190.71
2023-05-14T07:12:54.370Z,99183.98
2023-05-14T07:15:21.590Z,99183.15
2023-05-14T07:17:49.045Z,99182.89
2023-05-14T07:20:16.192Z,99179.69
2023-05-14T07:22:43.309Z,99178.92
2023-05-14T07:25:10.399Z,99179.90
2023-05-14T07:27:37.895Z,99174.73
2023-05-14T07:30:05.450Z,99176.31
2023-05-14T07:32:33.046Z,99174.05
2023-05-14T07:35:00.201Z,99173.17
2023-05-14T07:37:27.236Z,99167.02
2023-05-14T07:39:56.397Z,99167.71
2023-05-14T07:42:35.197Z,99159.67
2023-05-14T07:45:04.018Z,99162.19
2023-05-14T07:47:31.592Z,99161.34
2023-05-14T07:49:58.973Z,99152.92
2023-05-14T07:52:25.896Z,99150.86
2023-05-14T08:05:59.970Z,99129.84
2023-05-14T08:08:27.712Z,99124.40
2023-05-14T08:10:54.980Z,99128.14
2023-05-14T08:13:21.887Z,99127.88
2023-05-14T08:15:48.971Z,99129.88
2023-05-14T08:18:16.307Z,99124.71
2023-05-14T08:20:43.356Z,99127.64
2023-05-14T08:23:11.539Z,99123.19
2023-05-14T08:25:38.850Z,99117.67
2023-05-14T08:28:05.978Z,99118.84
2023-05-14T08:30:33.418Z,99117.73
2023-05-14T08:33:00.615Z,99115.67
2023-05-14T08:35:27.909Z,99109.95
2023-05-14T08:37:54.950Z,99113.42
2023-05-14T08:40:22.173Z,99113.97
2023-05-14T08:42:49.409Z,99109.99
2023-05-14T08:45:25.805Z,99108.80
2023-05-14T08:47:53.324Z,99113.83
2023-05-14T08:50:22.698Z,99109.57
2023-05-14T08:52:50.741Z,99108.30
2023-05-14T08:55:17.682Z,99102.32
2023-05-14T08:57:44.657Z,99102.84
2023-05-14T09:00:12.516Z,99102.42
2023-05-14T09:02:40.481Z,99105.64
2023-05-14T09:05:09.313Z,99101.35
2023-05-14T09:07:36.983Z,99106.07
2023-05-14T09:10:04.885Z,99099.72
2023-05-14T09:12:32.545Z,99099.84
2023-05-14T09:14:59.519Z,99092.95
2023-05-14T09:17:27.418Z,99092.85
2023-05-14T09:19:54.496Z,99086.30
2023-05-14T09:22:21.542Z,99079.66
2023-05-14T09:25:09.552Z,99082.65
2023-05-14T09:27:36.993Z,99076.16
2023-05-14T09:30:13.946Z,99079.88
2023-05-14T09:32:44.255Z,99081.93
2023-05-14T09:35:18.455Z,99081.48
2023-05-14T09:37:52.479Z,99082.70
2023-05-14T09:40:20.789Z,99076.58
2023-05-14T09:42:51.456Z,99070.92
2023-05-14T09:45:18.510Z,99068.59
2023-05-14T09:47:46.045Z,99062.64
2023-05-14T09:50:13.461Z,99062.65
2023-05-14T09:52:41.350Z,99055.84
2023-05-14T09:55:08.726Z,99051.48
2023-05-14T09:57:36.034Z,99049.09
2023-05-14T10:00:03.896Z,99048.54
2023-05-14T10:02:38.695Z,99047.50
2023-05-14T10:05:06.594Z,99056.52
2023-05-14T10:07:37.310Z,99051.94
2023-05-14T10:10:05.091Z,99055.10
2023-05-14T10:12:34.578Z,99048.96
2023-05-14T10:15:03.858Z,99045.05
2023-05-14T10:17:32.486Z,99040.73
2023-05-14T10:19:59.803Z,99036.92
2023-05-14T10:22:30.968Z,99034.16
2023-05-14T10:24:58.006Z,99035.69
2023-05-14T10:27:25.048Z,99037.55
2023-05-14T10:29:56.256Z,99034.60
2023-05-14T10:32:26.651Z,99029.48
2023-05-14T10:34:54.110Z,99026.91
2023-05-14T10:37:22.889Z,99024.71
2023-05-14T10:39:53.845Z,99025.59
2023-05-14T10:42:21.939Z,99020.51
2023-05-14T10:45:02.135Z,99007.55
2023-05-14T10:47:29.494Z,99005.63
2023-05-14T10:50:00.063Z,99008.44
2023-05-14T10:52:27.180Z,99013.80
2023-05-14T10:55:02.735Z,99006.11
2023-05-14T10:57:31.714Z,99003.86
2023-05-14T11:00:00.308Z,99000.63
2023-05-14T11:02:34.865Z,98998.46
2023-05-14T11:05:09.311Z,98984.77
2023-05-14T11:07:38.664Z,98985.36
2023-05-14T11:10:08.298Z,98985.21
2023-05-14T11:12:37.644Z,98986.51
2023-05-14T11:15:12.570Z,98979.39
2023-05-14T11:17:41.063Z,98973.44
2023-05-14T11:20:09.004Z,98973.42
2023-05-14T11:22:37.814Z,98968.41
2023-05-14T11:25:06.345Z,98970.63
2023-05-14T11:27:34.574Z,98970.54
2023-05-14T11:30:01.915Z,98963.77
2023-05-14T11:32:29.263Z,98960.70
2023-05-14T11:34:56.312Z,98963.23
2023-05-14T11:37:23.598Z,98958.52
2023-05-14T11:39:52.367Z,98956.83
2023-05-14T11:42:19.813Z,98948.49
2023-05-14T11:44:51.919Z,98939.61
2023-05-14T11:47:22.310Z,98939.66
2023-05-14T11:49:49.830Z,98937.59
2023-05-14T11:54:49.816Z,98932.86
2023-05-14T11:57:19.334Z,98923.06
2023-05-14T11:59:46.905Z,98918.89
2023-05-14T12:02:15.289Z,98917.70
2023-05-14T12:04:42.995Z,98909.92
2023-05-14T12:07:14.934Z,98912.39
2023-05-14T12:09:49.288Z,98907.11
2023-05-14T12:12:20.500Z,98900.41
2023-05-14T12:14:47.780Z,98903.79
2023-05-14T12:17:21.500Z,98897.32
2023-05-14T12:19:50.407Z,98892.25
2023-05-14T12:22:19.384Z,98885.13
2023-05-14T12:24:56.184Z,98878.98
2023-05-14T12:27:24.646Z,98872.10
2023-05-14T12:30:20.077Z,98874.38
2023-05-14T12:32:51.975Z,98868.08
2023-05-14T12:35:19.225Z,98864.69
2023-05-14T12:37:46.192Z,98856.85
2023-05-14T12:40:13.449Z,98847.20
2023-05-14T12:42:40.619Z,98856.09
2023-05-14T12:45:08.734Z,98851.33
2023-05-14T12:47:37.175Z,98851.34
2023-05-14T12:50:04.946Z,98844.15
2023-05-14T12:52:38.565Z,98834.86
2023-05-14T12:55:07.792Z,98833.05
2023-05-14T12:57:35.742Z,98823.83
2023-05-14T13:00:06.752Z,98820.02
2023-05-14T13:02:42.905Z,98815.38
2023-05-14T13:05:11.795Z,98816.15
2023-05-14T13:07:38.997Z,98823.42
2023-05-14T13:10:06.703Z,98822.96
2023-05-14T13:12:34.388Z,98827.92
2023-05-14T13:15:01.706Z,98821.05
2023-05-14T13:17:29.310Z,98833.77
2023-05-14T13:19:56.601Z,98827.34
2023-05-14T13:22:23.671Z,98823.61
2023-05-14T13:24:50.649Z,98821.05
2023-05-14T13:27:17.679Z,98812.50
2023-05-14T13:29:44.710Z,98811.54
2023-05-14T13:32:11.749Z,98806.27
2023-05-14T13:34:38.790Z,98799.73
2023-05-14T13:37:05.846Z,98800.39
2023-05-14T13:39:35.338Z,98789.01
2023-05-14T13:42:02.482Z,98780.60
2023-05-14T13:44:29.751Z,98778.19
2023-05-14T13:46:56.957Z,98778.04
2023-05-14T13:49:23.959Z,98777.81
2023-05-14T13:51:51.117Z,98764.81
2023-05-14T13:54:18.044Z,98766.95
2023-05-14T13:56:45.101Z,98767.91
2023-05-14T13:59:12.157Z,98764.77
2023-05-14T14:01:39.101Z,98763.04
2023-05-14T14:04:06.148Z,98763.06
2023-05-14T14:06:33.413Z,98755.89
2023-05-14T14:09:00.449Z,98751.19
2023-05-14T14:11:27.687Z,98749.35
2023-05-14T14:13:55.236Z,98753.13
2023-05-14T14:16:22.285Z,98750.42
2023-05-14T14:18:49.298Z,98748.48
2023-05-14T14:21:18.640Z,98744.55
2023-05-14T14:23:48.439Z,98753.18
2023-05-14T14:26:15.995Z,98751.20
2023-05-14T14:28:43.181Z,98753.45
2023-05-14T14:31:11.070Z,98751.69
2023-05-14T14:33:38.130Z,98751.30
2023-05-14T14:36:05.932Z,98747.73
2023-05-14T14:38:33.188Z,98744.75
2023-05-14T14:41:00.471Z,98744.92
2023-05-14T14:43:27.518Z,98746.18
2023-05-14T14:45:55.058Z,98747.84
2023-05-14T14:48:27.139Z,98751.91
2023-05-14T14:50:55.072Z,98743.63
2023-05-14T14:53:22.670Z,98747.10
2023-05-14T14:55:50.170Z,98753.77
2023-05-14T14:58:18.500Z,98748.87
2023-05-14T15:00:45.853Z,98740.34
2023-05-14T15:03:15.063Z,98734.48
2023-05-14T15:05:42.479Z,98733.16
2023-05-14T15:08:10.554Z,98726.70
2023-05-14T15:10:38.453Z,98731.67
2023-05-14T15:13:06.433Z,98730.75
2023-05-14T15:15:34.561Z,98729.84
2023-05-14T15:18:02.473Z,98724.64
2023-05-14T15:20:29.627Z,98723.79
2023-05-14T15:22:57.095Z,98721.95
2023-05-14T15:25:24.285Z,98712.50
2023-05-14T15:27:51.604Z,98712.05
2023-05-14T15:30:18.836Z,98708.19
2023-05-14T15:32:46.820Z,98706.48
2023-05-14T15:35:14.202Z,98704.83
2023-05-14T15:37:43.545Z,98705.03
2023-05-14T15:40:11.574Z,98703.02
2023-05-14T15:42:40.068Z,98699.29
2023-05-14T15:45:07.841Z,98704.04
2023-05-14T15:47:35.311Z,98696.05
2023-05-14T15:50:02.282Z,98694.69
2023-05-14T15:52:29.485Z,98691.20
2023-05-14T15:54:57.498Z,98684.20
2023-05-14T15:57:24.655Z,98677.77
2023-05-14T15:59:51.724Z,98676.61
2023-05-14T16:02:19.009Z,98672.78
2023-05-14T16:04:46.048Z,98671.86
2023-05-14T16:07:13.397Z,98665.92
2023-05-14T16:09:40.430Z,98660.52
2023-05-14T16:12:08.000Z,98663.18
2023-05-14T16:14:35.224Z,98656.00
2023-05-14T16:17:02.220Z,98655.70
2023-05-14T16:19:29.602Z,98653.55
2023-05-14T16:21:56.566Z,98654.48
2023-05-14T16:24:23.782Z,98652.17
2023-05-14T16:26:50.798Z,98651.82
2023-05-14T16:29:17.883Z,98648.83
2023-05-14T16:31:44.989Z,98648.17
2023-05-14T16:34:12.061Z,98645.50
2023-05-14T16:36:39.237Z,98637.63
2023-05-14T16:39:08.163Z,98636.02
2023-05-14T16:41:36.099Z,98633.65
2023-05-14T16:44:03.544Z,98638.50
2023-05-14T16:46:31.365Z,98640.77
2023-05-14T16:48:58.397Z,98642.79
2023-05-14T16:51:25.416Z,98646.36
2023-05-14T16:53:52.892Z,98649.08
2023-05-14T16:56:21.483Z,98644.90
2023-05-14T16:58:48.482Z,98641.72
2023-05-14T17:01:15.848Z,98645.51
2023-05-14T17:03:43.607Z,98646.30
2023-05-14T17:06:10.640Z,98644.73
2023-05-14T17:08:38.095Z,98648.84
2023-05-14T17:11:05.979Z,98654.14
2023-05-14T17:13:33.492Z,98657.79
2023-05-14T17:16:00.965Z,98660.56
2023-05-14T17:18:28.485Z,98660.14
2023-05-14T17:20:55.867Z,98663.64
2023-05-14T17:23:23.135Z,98666.59
2023-05-14T17:25:50.071Z,98671.89
2023-05-14T17:28:17.166Z,98671.82
2023-05-14T17:30:44.317Z,98677.91
2023-05-14T17:33:11.848Z,98684.53
2023-05-14T17:35:39.132Z,98685.22
2023-05-14T17:38:06.408Z,98692.26
2023-05-14T17:40:34.300Z,98694.28
2023-05-14T17:43:01.512Z,98693.91
2023-05-14T17:45:32.190Z,98696.44
2023-05-14T17:48:03.659Z,98690.45
2023-05-14T17:50:31.174Z,98687.02
2023-05-14T17:52:58.372Z,98676.92
2023-05-14T17:55:25.940Z,98675.93
2023-05-14T17:57:53.344Z,98671.26
2023-05-14T18:00:20.684Z,98667.45
2023-05-14T18:02:47.873Z,98669.31
2023-05-14T18:05:15.447Z,98664.62
2023-05-14T18:07:42.648Z,98661.52
2023-05-14T18:10:09.707Z,98659.39
2023-05-14T18:12:40.909Z,98658.41
2023-05-14T18:15:08.272Z,98656.02
2023-05-14T18:17:35.901Z,98651.70
2023-05-14T18:20:03.375Z,98654.80
2023-05-14T18:22:30.730Z,98654.20
2023-05-14T18:24:57.960Z,98657.05
2023-05-14T18:27:25.079Z,98656.08
2023-05-14T18:29:52.851Z,98659.14
2023-05-14T18:32:21.259Z,98657.25
2023-05-14T18:34:48.562Z,98654.75
2023-05-14T18:37:15.546Z,98654.52
2023-05-14T18:39:42.593Z,98650.95
2023-05-14T18:42:10.878Z,98653.48
2023-05-14T18:44:41.408Z,98653.15
2023-05-14T18:47:08.494Z,98653.42
2023-05-14T18:49:38.660Z,98652.04
2023-05-14T18:52:06.699Z,98646.75
2023-05-14T18:54:33.753Z,98648.08
2023-05-14T18:57:01.368Z,98642.48
2023-05-14T18:59:28.377Z,98642.44
2023-05-14T19:01:55.848Z,98641.04
2023-05-14T19:04:22.945Z,98644.30
2023-05-14T19:06:50.296Z,98641.73
2023-05-14T19:09:21.114Z,98639.74
2023-05-14T19:11:49.764Z,98644.48
2023-05-14T19:14:16.829Z,98642.44
2023-05-14T19:16:45.538Z,98641.05
2023-05-14T19:19:12.809Z,98641.72
2023-05-14T19:21:42.348Z,98640.84
2023-05-14T19:24:16.084Z,98643.52
2023-05-14T19:26:45.242Z,98641.48
2023-05-14T19:29:12.303Z,98639.80
2023-05-14T19:31:41.954Z,98640.97
2023-05-14T19:34:09.062Z,98640.48
2023-05-14T19:36:39.164Z,98639.14
2023-05-14T19:39:06.207Z,98635.59
2023-05-14T19:41:34.827Z,98636.87
2023-05-14T19:44:01.994Z,98637.02
2023-05-14T19:46:29.233Z,98633.29
2023-05-14T19:48:56.273Z,98632.17
2023-05-14T19:51:23.197Z,98627.27
2023-05-14T19:53:50.274Z,98620.38
2023-05-14T19:56:17.720Z,98617.77
2023-05-14T19:58:44.746Z,98610.17
2023-05-14T20:01:12.139Z,98607.98
2023-05-14T20:03:39.343Z,98602.13
2023-05-14T20:06:07.441Z,98600.63
2023-05-14T20:08:34.459Z,98602.17
2023-05-14T20:11:01.713Z,98598.64
2023-05-14T20:13:31.929Z,98600.39
2023-05-14T20:15:59.288Z,98599.48
2023-05-14T20:18:26.388Z,98599.13
2023-05-14T20:20:54.744Z,98590.80
2023-05-14T20:23:21.871Z,98593.17
2023-05-14T20:25:49.146Z,98594.86
2023-05-14T20:28:16.282Z,98592.04
2023-05-14T20:30:43.352Z,98592.27
2023-05-14T20:33:10.479Z,98589.98
2023-05-14T20:35:38.646Z,98587.80
2023-05-14T20:38:06.156Z,98588.81
2023-05-14T20:40:33.234Z,98587.38
2023-05-14T20:43:00.584Z,98587.27
2023-05-14T20:45:27.922Z,98580.48
2023-05-14T20:47:55.226Z,98575.89
2023-05-14T20:50:23.162Z,98568.98
2023-05-14T20:52:50.248Z,98569.54
2023-05-14T20:55:18.124Z,98568.39
2023-05-14T20:57:45.251Z,98562.65
2023-05-14T21:00:13.287Z,98557.11
2023-05-14T21:02:40.823Z,98556.42
2023-05-14T21:05:07.958Z,98557.15
2023-05-14T21:07:36.592Z,98554.33
2023-05-14T21:10:04.222Z,98556.52
2023-05-14T21:12:32.066Z,98560.39
2023-05-14T21:14:59.154Z,98559.36
2023-05-14T21:17:26.174Z,98557.67
2023-05-14T21:19:53.157Z,98562.84
2023-05-14T21:22:20.115Z,98562.23
2023-05-14T21:24:47.081Z,98555.70
2023-05-14T21:27:14.314Z,98551.27
2023-05-14T21:29:41.452Z,98546.39
2023-05-14T21:32:08.899Z,98545.96
2023-05-14T21:34:35.989Z,98544.89
2023-05-14T21:37:03.410Z,98536.77
2023-05-14T21:39:31.070Z,98532.07
2023-05-14T21:41:58.053Z,98529.92
2023-05-14T21:44:25.041Z,98524.64
2023-05-14T21:46:52.315Z,98524.21
2023-05-14T21:49:19.232Z,98517.27
2023-05-14T21:51:46.727Z,98519.61
2023-05-14T21:54:14.221Z,98517.96
2023-05-14T21:56:41.307Z,98515.77
2023-05-14T21:59:08.509Z,98510.69
2023-05-14T22:01:50.583Z,98509.93
2023-05-14T22:04:22.986Z,98505.69
2023-05-14T22:06:50.030Z,98504.52
2023-05-14T22:09:16.957Z,98502.66
2023-05-14T22:11:44.136Z,98502.62
2023-05-14T22:14:11.353Z,98500.92
2023-05-14T22:16:38.436Z,98499.23
2023-05-14T22:19:06.661Z,98497.64
2023-05-14T22:21:33.910Z,98497.00
2023-05-14T22:24:01.027Z,98497.59
2023-05-14T22:26:28.235Z,98493.94
2023-05-14T22:28:57.629Z,98490.02
2023-05-14T22:31:25.140Z,98483.44
2023-05-14T22:33:53.167Z,98478.13
2023-05-14T22:36:20.572Z,98473.78
2023-05-14T22:38:47.513Z,98465.39
2023-05-14T22:41:17.599Z,98463.11
2023-05-14T22:43:44.938Z,98459.86
2023-05-14T22:46:12.281Z,98453.73
2023-05-14T22:48:39.678Z,98451.90
2023-05-14T22:51:07.405Z,98447.69
2023-05-14T22:53:34.773Z,98444.39
2023-05-14T22:56:02.083Z,98445.54
2023-05-14T22:58:29.387Z,98446.23
2023-05-14T23:00:57.060Z,98443.88
2023-05-14T23:03:24.087Z,98441.02
2023-05-14T23:05:52.135Z,98439.33
2023-05-14T23:08:19.652Z,98435.84
2023-05-14T23:10:46.621Z,98436.39
2023-05-14T23:13:13.656Z,98431.57
2023-05-14T23:15:40.635Z,98430.83
2023-05-14T23:18:07.933Z,98435.61
2023-05-14T23:20:35.128Z,98433.70
2023-05-14T23:23:02.725Z,98431.17
2023-05-14T23:25:29.833Z,98426.65
2023-05-14T23:27:56.892Z,98421.15
2023-05-14T23:30:24.137Z,98419.32
2023-05-14T23:32:51.402Z,98418.79
2023-05-14T23:35:18.428Z,98416.02
2023-05-14T23:37:47.484Z,98415.45
2023-05-14T23:40:15.789Z,98417.09
2023-05-14T23:42:43.569Z,98420.30
2023-05-14T23:45:12.551Z,98423.63
2023-05-14T23:47:40.562Z,98422.05
2023-05-14T23:50:07.785Z,98419.55
2023-05-14T23:52:34.868Z,98416.48
2023-05-14T23:55:02.008Z,98406.88
2023-05-14T23:57:29.097Z,98400.95
2023-05-14T23:59:56.218Z,98400.45
